Time;durP1;ratioP1;P1;durP2;ratioP2;P2;SDS_P1;SDS_P2;PMS_P1;PMS_P2;Temp;Humidity;BMP_temperature;BMP_pressure;BME280_temperature;BME280_humidity;BME280_pressure;Samples;Min_cycle;Max_cycle;Signal;HPM_P1;HPM_P2
2022/12/12 04:47:11;;;;;;;14.85;6.57;;;;;;;-2.13;95.10;99437.47;5963460;27;20143;-86
2022/12/12 04:50:20;;;;;;;11.40;5.95;;;;;;;-2.26;94.79;99438.53;5349166;33;34069;-85
2022/12/12 04:53:49;;;;;;;14.55;6.25;;;;;;;-2.28;94.36;99425.50;5361596;33;34851;-86
2022/12/12 04:56:57;;;;;;;11.40;5.87;;;;;;;-2.24;92.77;99428.72;5361804;33;34529;-85
2022/12/12 05:00:00;;;;;;;16.85;6.30;;;;;;;-2.28;91.89;99436.87;5362253;33;34214;-85
2022/12/12 05:03:13;;;;;;;12.40;6.25;;;;;;;-2.39;92.01;99436.03;5362048;33;34352;-86
2022/12/12 05:06:20;;;;;;;9.65;6.10;;;;;;;-2.33;93.00;99433.75;5362137;33;33872;-85
2022/12/12 05:09:24;;;;;;;13.77;6.10;;;;;;;-2.33;90.49;99439.03;5362334;33;34123;-90
2022/12/12 05:12:26;;;;;;;11.60;5.72;;;;;;;-2.40;91.26;99442.22;5362155;33;34182;-90
2022/12/12 05:15:29;;;;;;;14.90;6.80;;;;;;;-2.43;90.75;99434.56;5361352;33;34963;-91
2022/12/12 05:18:32;;;;;;;12.10;6.18;;;;;;;-2.48;90.96;99431.47;5361956;33;33657;-91
2022/12/12 05:21:35;;;;;;;16.17;6.65;;;;;;;-2.48;90.64;99440.22;5362696;33;34086;-87
2022/12/12 05:24:38;;;;;;;12.57;6.62;;;;;;;-2.53;91.55;99430.00;5361668;33;34796;-86
2022/12/12 05:27:41;;;;;;;12.07;6.55;;;;;;;-2.56;92.24;99453.13;5361591;33;34625;-87
2022/12/12 05:30:44;;;;;;;14.32;7.43;;;;;;;-2.66;91.18;99453.00;5360759;33;34035;-86
2022/12/12 05:33:48;;;;;;;13.75;6.72;;;;;;;-2.70;92.27;99467.34;5361998;33;34475;-86
2022/12/12 05:36:51;;;;;;;14.25;7.03;;;;;;;-2.65;92.98;99464.38;5362341;33;33872;-86
2022/12/12 05:39:53;;;;;;;15.15;7.50;;;;;;;-2.74;93.62;99461.47;5361670;33;34698;-86
2022/12/12 05:42:56;;;;;;;14.50;7.60;;;;;;;-2.81;93.84;99468.16;5362025;33;33572;-86
2022/12/12 05:46:02;;;;;;;14.60;7.37;;;;;;;-2.75;93.20;99465.06;5362229;33;34389;-85
2022/12/12 05:49:05;;;;;;;14.18;6.47;;;;;;;-2.88;94.62;99464.28;5361659;33;34431;-86
2022/12/12 05:52:08;;;;;;;15.52;7.50;;;;;;;-2.90;95.67;99466.19;5361623;33;33965;-86
2022/12/12 05:55:10;;;;;;;14.85;6.70;;;;;;;-2.88;96.33;99474.00;5348194;33;34122;-86
2022/12/12 05:58:14;;;;;;;15.70;7.53;;;;;;;-2.96;94.94;99470.13;5362273;33;34564;-86
2022/12/12 06:01:17;;;;;;;11.27;6.80;;;;;;;-3.01;96.78;99480.19;5361580;33;34576;-85
2022/12/12 06:04:19;;;;;;;15.10;7.22;;;;;;;-2.94;96.34;99470.03;5361730;33;33963;-86
2022/12/12 06:07:22;;;;;;;17.02;7.68;;;;;;;-2.91;96.94;99482.13;5363594;33;34001;-86
2022/12/12 06:10:27;;;;;;;14.10;6.87;;;;;;;-2.97;95.67;99489.53;5372402;33;34648;-85
2022/12/12 06:13:29;;;;;;;14.82;7.43;;;;;;;-2.92;96.08;99483.09;5366923;33;34949;-86
2022/12/12 06:16:34;;;;;;;13.77;7.43;;;;;;;-2.95;96.00;99486.78;5362306;33;34993;-86
2022/12/12 06:19:37;;;;;;;14.32;6.65;;;;;;;-2.92;94.35;99493.62;5366143;33;34083;-86
2022/12/12 06:22:41;;;;;;;13.80;7.50;;;;;;;-2.87;93.36;99486.19;5365702;33;34389;-86
2022/12/12 06:25:43;;;;;;;10.50;5.60;;;;;;;-2.88;92.75;99485.38;5364182;33;34143;-86
2022/12/12 06:28:47;;;;;;;13.77;7.97;;;;;;;-2.92;94.20;99493.62;5365740;33;35041;-85
2022/12/12 06:31:49;;;;;;;12.10;6.60;;;;;;;-2.97;96.91;99507.13;5363872;33;34418;-86
2022/12/12 06:34:52;;;;;;;20.35;7.10;;;;;;;-2.94;93.46;99506.91;5359752;33;34854;-86
2022/12/12 06:37:55;;;;;;;13.52;6.90;;;;;;;-2.94;93.86;99499.00;5357045;33;34554;-86
2022/12/12 06:40:59;;;;;;;16.98;7.65;;;;;;;-2.92;93.79;99510.25;5360297;33;32362;-86
2022/12/12 06:44:02;;;;;;;16.58;7.15;;;;;;;-2.92;95.17;99504.16;5362970;33;34767;-86
2022/12/12 06:47:04;;;;;;;11.73;7.43;;;;;;;-2.91;95.86;99498.75;5362997;33;34320;-86
2022/12/12 06:50:07;;;;;;;18.40;7.60;;;;;;;-2.91;94.85;99516.38;5362985;33;33971;-86
2022/12/12 06:53:11;;;;;;;15.20;7.00;;;;;;;-2.86;94.15;99527.41;5350941;33;33706;-85
2022/12/12 06:56:22;;;;;;;15.63;6.78;;;;;;;-2.85;93.11;99531.72;5346401;33;34407;-86
2022/12/12 06:59:27;;;;;;;16.37;7.30;;;;;;;-2.75;92.99;99538.81;5340990;33;144629;-86
2022/12/12 07:02:30;;;;;;;19.00;7.32;;;;;;;-2.72;92.55;99542.16;5333683;33;33477;-86
2022/12/12 07:05:33;;;;;;;13.80;7.30;;;;;;;-2.67;92.19;99548.78;5349463;33;33882;-86
2022/12/12 07:08:36;;;;;;;11.77;6.40;;;;;;;-2.69;92.55;99552.47;5354300;33;33741;-84
2022/12/12 07:11:40;;;;;;;12.80;6.60;;;;;;;-2.58;93.97;99550.72;5371774;33;34360;-85
2022/12/12 07:14:43;;;;;;;13.35;7.15;;;;;;;-2.46;92.80;99545.50;5355883;33;34152;-85
2022/12/12 07:17:45;;;;;;;15.52;6.87;;;;;;;-2.31;92.80;99539.06;5343077;33;33393;-85
2022/12/12 07:20:48;;;;;;;14.55;6.90;;;;;;;-2.19;90.90;99545.22;5353463;33;34221;-85
2022/12/12 07:23:52;;;;;;;14.27;6.87;;;;;;;-2.18;87.88;99553.00;5344882;33;33975;-88
2022/12/12 07:26:54;;;;;;;13.73;7.03;;;;;;;-2.11;89.41;99556.00;5350451;33;34073;-90
2022/12/12 07:29:57;;;;;;;14.13;6.60;;;;;;;-2.18;88.61;99562.72;5332473;33;32925;-90
2022/12/12 07:33:00;;;;;;;15.60;6.78;;;;;;;-2.13;89.06;99564.03;5355434;33;34860;-90
2022/12/12 07:36:03;;;;;;;15.70;7.37;;;;;;;-2.14;88.08;99572.06;5350645;33;34211;-87
2022/12/12 07:39:06;;;;;;;17.52;7.47;;;;;;;-2.08;89.38;99571.59;5344781;33;34487;-85
2022/12/12 07:42:09;;;;;;;14.63;6.57;;;;;;;-1.98;90.04;99566.47;5359353;33;34063;-85
2022/12/12 07:45:12;;;;;;;15.65;7.65;;;;;;;-1.92;88.76;99564.19;5377870;33;34894;-86
2022/12/12 07:48:20;;;;;;;14.98;7.25;;;;;;;-1.83;89.84;99568.75;5364917;33;35311;-86
2022/12/12 07:51:23;;;;;;;13.77;7.35;;;;;;;-1.74;90.36;99559.28;5353719;33;34772;-86
2022/12/12 07:54:29;;;;;;;14.00;7.28;;;;;;;-1.69;88.19;99569.47;5343207;33;34794;-86
2022/12/12 07:57:32;;;;;;;12.95;7.78;;;;;;;-1.64;87.80;99568.16;5348781;33;35532;-86
2022/12/12 08:00:35;;;;;;;16.62;7.75;;;;;;;-1.59;86.92;99575.72;5345885;33;33116;-86
2022/12/12 08:03:38;;;;;;;15.60;7.60;;;;;;;-1.56;85.41;99582.56;5362041;33;33926;-86
2022/12/12 08:06:40;;;;;;;14.07;7.25;;;;;;;-1.59;85.65;99578.34;5355688;33;33433;-86
2022/12/12 08:09:44;;;;;;;17.65;7.20;;;;;;;-1.47;85.34;99593.22;5357525;33;34657;-86
2022/12/12 08:12:46;;;;;;;10.93;7.03;;;;;;;-1.37;85.86;99601.28;5356749;33;33966;-86
2022/12/12 08:15:49;;;;;;;15.18;6.50;;;;;;;-1.46;84.23;99596.72;5355145;33;34542;-86
2022/12/12 08:18:54;;;;;;;17.60;7.47;;;;;;;-1.43;84.01;99607.03;5356488;33;34139;-86
2022/12/12 08:21:56;;;;;;;15.48;6.47;;;;;;;-1.32;84.33;99612.28;5359313;33;33753;-86
2022/12/12 08:24:59;;;;;;;11.77;6.85;;;;;;;-1.17;82.71;99616.38;5354051;33;34847;-86
2022/12/12 08:28:02;;;;;;;13.82;6.90;;;;;;;-1.12;82.96;99618.63;5332850;33;32832;-86
2022/12/12 08:31:07;;;;;;;16.48;6.72;;;;;;;-1.15;82.13;99621.53;5357715;33;34992;-86
2022/12/12 08:34:11;;;;;;;14.18;6.15;;;;;;;-1.08;82.17;99621.88;5354269;33;33769;-86
2022/12/12 08:37:13;;;;;;;15.77;6.72;;;;;;;-1.02;80.00;99626.69;5360919;33;35181;-86
2022/12/12 08:40:16;;;;;;;12.27;5.87;;;;;;;-1.03;80.48;99625.00;5346229;33;33847;-86
2022/12/12 08:43:19;;;;;;;16.00;6.72;;;;;;;-0.87;79.88;99619.34;5354625;33;33937;-85
2022/12/12 08:46:22;;;;;;;15.15;6.62;;;;;;;-0.87;79.02;99625.47;5350426;33;33000;-86
2022/12/12 08:49:25;;;;;;;15.02;6.20;;;;;;;-0.84;78.10;99603.22;5361502;33;33864;-86
2022/12/12 08:52:28;;;;;;;11.70;5.80;;;;;;;-0.72;76.65;99613.63;5359241;33;33570;-86
2022/12/12 08:55:30;;;;;;;12.20;5.93;;;;;;;-0.58;76.26;99619.63;5354722;33;34699;-86
2022/12/12 08:58:34;;;;;;;11.07;5.95;;;;;;;-0.58;74.99;99612.53;5341059;33;32801;-84
2022/12/12 09:01:36;;;;;;;10.35;4.93;;;;;;;-0.52;74.33;99617.31;5344797;33;34485;-86
2022/12/12 09:04:39;;;;;;;12.23;5.25;;;;;;;-0.43;74.00;99622.81;5347237;33;33507;-85
2022/12/12 09:07:42;;;;;;;7.78;4.87;;;;;;;-0.40;73.65;99618.09;5351871;33;33652;-86
2022/12/12 09:10:49;;;;;;;12.45;6.00;;;;;;;-0.57;73.17;99622.13;5352759;33;34086;-86
2022/12/12 09:13:52;;;;;;;8.63;5.25;;;;;;;-0.51;73.79;99621.63;5341387;33;33437;-85
2022/12/12 09:16:55;;;;;;;13.62;5.90;;;;;;;-0.42;73.13;99627.13;5357643;33;34091;-86
2022/12/12 09:19:57;;;;;;;9.77;5.20;;;;;;;-0.39;74.18;99625.06;5361950;33;34297;-86
2022/12/12 09:23:00;;;;;;;9.82;5.30;;;;;;;-0.53;71.60;99638.56;5352347;33;34366;-86
2022/12/12 09:26:22;;;;;;;10.27;5.62;;;;;;;-0.75;73.13;99635.03;5359659;33;33584;-86
2022/12/12 09:29:26;;;;;;;13.15;5.43;;;;;;;-0.64;74.28;99635.94;5351819;33;33776;-89
2022/12/12 09:32:28;;;;;;;21.12;5.80;;;;;;;-0.64;74.48;99626.25;5346852;33;34170;-90
2022/12/12 09:35:32;;;;;;;10.70;5.37;;;;;;;-0.69;74.38;99631.88;5342982;33;34045;-90
2022/12/12 09:38:35;;;;;;;10.20;5.50;;;;;;;-0.62;74.71;99632.22;5346530;33;33776;-90
2022/12/12 09:41:40;;;;;;;12.23;6.00;;;;;;;-0.64;73.66;99635.94;5355185;33;33908;-86
2022/12/12 09:44:43;;;;;;;12.32;5.75;;;;;;;-0.61;75.21;99633.09;5352015;33;34856;-87
2022/12/12 09:47:52;;;;;;;9.40;5.10;;;;;;;-0.67;74.36;99629.13;5347067;33;33824;-86
2022/12/12 09:50:55;;;;;;;9.50;4.85;;;;;;;-0.57;74.56;99624.75;5355598;33;34030;-86
2022/12/12 09:53:59;;;;;;;12.50;5.82;;;;;;;-0.48;73.34;99618.72;5354309;33;34137;-86
2022/12/12 09:57:16;;;;;;;11.02;5.85;;;;;;;-0.44;72.49;99616.66;5353006;33;33588;-86
2022/12/12 10:00:20;;;;;;;9.90;5.35;;;;;;;-0.44;72.82;99618.47;5361246;33;35751;-85
2022/12/12 10:03:44;;;;;;;11.10;5.43;;;;;;;-0.44;72.94;99621.94;5357809;33;34080;-86
2022/12/12 10:07:01;;;;;;;9.25;5.53;;;;;;;-0.44;71.94;99626.41;5352807;33;34153;-86
2022/12/12 10:10:19;;;;;;;12.43;5.60;;;;;;;-0.43;72.86;99615.72;5342865;33;32987;-85
2022/12/12 10:13:28;;;;;;;11.73;5.53;;;;;;;-0.33;71.69;99624.53;5352553;33;34191;-85
2022/12/12 10:16:32;;;;;;;14.35;6.15;;;;;;;-0.50;71.63;99622.44;5355381;33;34369;-85
2022/12/12 10:19:52;;;;;;;11.70;5.60;;;;;;;-0.55;72.43;99640.50;5375772;33;33966;-86
2022/12/12 10:23:25;;;;;;;11.27;5.70;;;;;;;-0.67;73.05;99647.62;5336362;33;32499;-86
2022/12/12 10:26:30;;;;;;;9.95;5.90;;;;;;;-0.81;73.70;99638.16;5342881;33;34056;-87
2022/12/12 10:29:33;;;;;;;11.20;5.32;;;;;;;-0.90;75.00;99638.09;5342789;33;34171;-86
2022/12/12 10:32:57;;;;;;;11.68;5.10;;;;;;;-0.98;73.91;99651.88;5351122;33;34787;-86
2022/12/12 10:36:21;;;;;;;9.77;5.78;;;;;;;-0.97;75.23;99651.75;5361095;33;33565;-86
2022/12/12 10:39:37;;;;;;;18.10;5.80;;;;;;;-0.89;73.58;99659.06;5360774;33;34484;-86
2022/12/12 10:42:50;;;;;;;14.32;5.45;;;;;;;-0.76;73.47;99654.50;5350255;33;33917;-85
2022/12/12 10:46:04;;;;;;;13.43;5.32;;;;;;;-0.64;75.14;99660.59;5359686;33;34355;-86
2022/12/12 10:49:21;;;;;;;13.95;6.93;;;;;;;-0.64;73.12;99650.03;5355787;33;32525;-86
2022/12/12 10:52:24;;;;;;;8.27;5.28;;;;;;;-0.75;74.36;99653.53;5360024;33;34363;-86
2022/12/12 10:55:39;;;;;;;8.93;5.40;;;;;;;-0.66;73.24;99664.34;5355604;33;33895;-86
2022/12/12 10:58:43;;;;;;;11.40;5.25;;;;;;;-0.66;74.57;99656.41;5358662;33;34053;-86
2022/12/12 11:01:57;;;;;;;8.55;5.30;;;;;;;-0.64;74.72;99652.69;5345826;33;33956;-86
2022/12/12 11:05:19;;;;;;;11.20;5.70;;;;;;;-0.66;73.68;99653.75;5355579;33;33944;-87
2022/12/12 11:08:29;;;;;;;12.07;6.25;;;;;;;-0.55;74.66;99653.72;5346654;33;34723;-87
2022/12/12 11:11:33;;;;;;;13.90;5.60;;;;;;;-0.43;73.49;99654.53;5341781;33;32625;-86
2022/12/12 11:14:58;;;;;;;10.93;5.65;;;;;;;-0.57;73.43;99650.37;5341852;33;33897;-86
2022/12/12 11:18:01;;;;;;;11.20;5.70;;;;;;;-0.61;72.84;99667.44;5347853;33;34210;-85
2022/12/12 11:21:11;;;;;;;15.23;5.30;;;;;;;-0.61;74.80;99659.53;5362100;33;34025;-86
2022/12/12 11:24:20;;;;;;;10.73;6.10;;;;;;;-0.71;73.80;99662.03;5341405;33;34367;-86
2022/12/12 11:27:30;;;;;;;10.00;5.40;;;;;;;-0.73;75.99;99667.47;5335638;33;32473;-87
2022/12/12 11:30:36;;;;;;;11.00;5.35;;;;;;;-0.80;74.52;99671.56;5354627;33;33273;-87
2022/12/12 11:33:47;;;;;;;7.95;4.78;;;;;;;-0.94;77.64;99670.03;5365191;33;33682;-86
2022/12/12 11:36:49;;;;;;;;;;;;;;;-0.98;76.51;99659.81;5361922;33;34974;-86
2022/12/12 11:39:54;;;;;;;12.82;5.45;;;;;;;-1.01;74.90;99666.19;5361255;33;33466;-86
2022/12/12 11:43:13;;;;;;;9.13;5.35;;;;;;;-0.92;74.63;99673.37;5362996;33;34859;-86
2022/12/12 11:46:24;;;;;;;7.35;4.53;;;;;;;-0.19;72.78;99678.12;5367410;33;33848;-85
2022/12/12 11:49:27;;;;;;;8.60;5.00;;;;;;;0.79;68.53;99676.00;5386842;33;35198;-85
2022/12/12 11:52:32;;;;;;;11.65;5.45;;;;;;;1.42;65.83;99683.72;5379930;33;34473;-86
2022/12/12 11:56:12;;;;;;;9.05;4.90;;;;;;;1.83;63.52;99676.50;5376864;33;35211;-85
2022/12/12 11:59:40;;;;;;;8.50;5.25;;;;;;;1.85;64.11;99666.59;5379392;33;34915;-86
2022/12/12 12:03:04;;;;;;;7.85;4.85;;;;;;;1.83;64.85;99681.81;5367364;33;34929;-86
2022/12/12 12:06:33;;;;;;;9.05;5.00;;;;;;;2.42;63.28;99675.47;5371936;33;34402;-86
2022/12/12 12:09:52;;;;;;;8.60;5.22;;;;;;;2.40;62.76;99665.97;5360147;33;33947;-86
2022/12/12 12:13:11;;;;;;;9.80;6.28;;;;;;;2.80;62.19;99675.53;5357122;33;33754;-86
2022/12/12 12:16:37;;;;;;;15.13;6.15;;;;;;;2.81;62.62;99675.41;5354892;33;34628;-86
2022/12/12 12:19:47;;;;;;;10.75;5.87;;;;;;;2.26;64.20;99683.22;5352489;33;34160;-86
2022/12/12 12:22:58;;;;;;;11.00;5.82;;;;;;;1.35;69.00;99677.28;5363842;33;34072;-85
2022/12/12 12:26:30;;;;;;;9.70;5.45;;;;;;;0.52;73.26;99676.53;5367101;33;34207;-87
2022/12/12 12:29:55;;;;;;;9.05;5.25;;;;;;;-0.10;75.56;99680.84;5346035;33;34263;-86
2022/12/12 12:33:10;;;;;;;15.65;5.53;;;;;;;-0.28;77.14;99677.91;5351937;33;33954;-86
2022/12/12 12:36:21;;;;;;;9.75;5.87;;;;;;;-0.35;78.87;99673.25;5351069;33;34317;-86
2022/12/12 12:39:57;;;;;;;10.15;5.03;;;;;;;-0.56;80.81;99667.91;5349374;33;34146;-85
2022/12/12 12:43:08;;;;;;;11.93;5.50;;;;;;;-0.63;80.38;99674.66;5363346;33;35007;-86
2022/12/12 12:46:49;;;;;;;10.02;5.70;;;;;;;-0.68;80.64;99673.22;5371652;33;35346;-85
2022/12/12 12:49:57;;;;;;;11.00;5.28;;;;;;;-0.84;82.61;99682.50;5371003;33;34847;-91
2022/12/12 12:53:13;;;;;;;9.82;5.40;;;;;;;-0.79;82.91;99680.31;5372847;33;34314;-86
2022/12/12 12:56:26;;;;;;;10.48;5.75;;;;;;;-0.42;82.00;99683.47;5367721;33;34630;-86
2022/12/12 12:59:35;;;;;;;12.50;5.50;;;;;;;-0.08;79.18;99686.03;5353066;33;32545;-86
2022/12/12 13:03:03;;;;;;;10.27;5.17;;;;;;;0.21;80.45;99695.03;5351521;33;33617;-86
2022/12/12 13:06:19;;;;;;;7.60;4.90;;;;;;;-0.15;79.20;99696.25;5363956;33;34035;-86
2022/12/12 13:09:43;;;;;;;9.88;5.47;;;;;;;-0.45;82.29;99699.59;5364710;33;34382;-86
2022/12/12 13:13:15;;;;;;;10.88;5.60;;;;;;;-0.57;84.17;99704.06;5371345;33;34618;-86
2022/12/12 13:16:31;;;;;;;9.82;5.37;;;;;;;-0.62;83.23;99692.19;5366403;33;32232;-85
2022/12/12 13:19:43;;;;;;;8.35;4.87;;;;;;;-0.66;84.18;99694.25;5345343;33;34338;-90
2022/12/12 13:23:10;;;;;;;11.55;5.53;;;;;;;-0.82;86.76;99697.28;5347272;33;34157;-90
2022/12/12 13:26:39;;;;;;;8.88;5.10;;;;;;;-0.91;87.26;99695.34;5347075;33;34260;-86
2022/12/12 13:29:57;;;;;;;12.43;5.37;;;;;;;-1.00;88.92;99698.72;5364562;33;34181;-85
2022/12/12 13:33:24;;;;;;;7.47;4.50;;;;;;;-0.98;88.76;99702.91;5344260;33;33719;-85
2022/12/12 13:36:32;;;;;;;7.18;4.70;;;;;;;-1.00;85.49;99690.78;5338748;33;32242;-85
2022/12/12 13:39:36;;;;;;;8.98;5.28;;;;;;;-1.08;87.67;99686.13;5361287;33;34221;-85
2022/12/12 13:43:00;;;;;;;10.32;4.90;;;;;;;-1.08;87.03;99701.97;5354630;33;35187;-85
2022/12/12 13:46:19;;;;;;;8.80;5.00;;;;;;;-1.06;86.87;99709.75;5385997;33;34213;-85
2022/12/12 13:49:29;;;;;;;10.88;5.37;;;;;;;-1.07;85.41;99716.03;5386549;33;34452;-85
2022/12/12 13:52:41;;;;;;;7.82;4.87;;;;;;;-1.08;86.14;99711.69;5385320;33;34934;-89
2022/12/12 13:55:44;;;;;;;10.52;5.82;;;;;;;-1.13;85.10;99721.78;5386629;33;34252;-86
2022/12/12 13:58:47;;;;;;;8.00;4.47;;;;;;;-1.21;86.47;99717.09;5376238;33;33801;-87
2022/12/12 14:01:57;;;;;;;7.75;4.82;;;;;;;-1.23;87.66;99709.31;5354126;33;34631;-86
2022/12/12 14:05:28;;;;;;;9.00;5.07;;;;;;;-1.38;87.34;99716.56;5355215;33;34436;-85
2022/12/12 14:08:35;;;;;;;8.70;5.05;;;;;;;-1.39;88.65;99716.72;5346571;33;33477;-86
2022/12/12 14:11:39;;;;;;;6.97;4.57;;;;;;;-1.41;87.10;99713.34;5357980;33;33727;-85
2022/12/12 14:14:52;;;;;;;7.32;4.62;;;;;;;-1.49;88.67;99721.00;5361976;33;34113;-86
2022/12/12 14:17:58;;;;;;;7.60;4.30;;;;;;;-1.49;87.15;99719.22;5352115;33;33686;-85
2022/12/12 14:21:08;;;;;;;8.38;4.78;;;;;;;-1.56;85.23;99723.28;5335995;33;32831;-86
2022/12/12 14:24:32;;;;;;;8.90;4.85;;;;;;;-1.57;85.26;99720.75;5359652;33;33792;-86
2022/12/12 14:27:50;;;;;;;9.00;4.95;;;;;;;-1.61;86.24;99725.41;5366292;33;34572;-86
2022/12/12 14:31:14;;;;;;;9.68;5.10;;;;;;;-1.55;85.55;99710.91;5357964;33;34368;-86
2022/12/12 14:35:04;;;;;;;9.77;5.15;;;;;;;-1.58;86.57;99719.91;5346536;33;34274;-86
2022/12/12 14:38:25;;;;;;;7.45;4.75;;;;;;;-1.54;87.32;99721.38;5318918;33;32703;-86
2022/12/12 14:41:37;;;;;;;10.60;4.93;;;;;;;-1.59;88.39;99723.50;5356514;33;34467;-86
2022/12/12 14:44:42;;;;;;;;;;;;;;;-1.62;88.30;99724.56;5350997;33;33553;-85
2022/12/12 14:48:13;;;;;;;10.25;4.87;;;;;;;-1.69;89.31;99730.44;5331690;33;34505;-85
2022/12/12 14:51:26;;;;;;;8.35;5.15;;;;;;;-1.66;90.49;99728.41;5359340;33;32510;-85
2022/12/12 14:54:38;;;;;;;8.75;4.90;;;;;;;-1.70;91.16;99739.31;5347047;33;34546;-86
2022/12/12 14:57:41;;;;;;;10.77;5.47;;;;;;;-1.68;92.13;99742.69;5363119;33;34311;-85
2022/12/12 15:00:50;;;;;;;9.52;5.87;;;;;;;-1.66;91.29;99746.88;5362712;33;33990;-85
2022/12/12 15:03:53;;;;;;;9.50;4.72;;;;;;;-1.64;90.64;99763.47;5361290;33;33885;-85
2022/12/12 15:06:57;;;;;;;11.77;5.65;;;;;;;-1.69;90.76;99759.47;5345535;33;34078;-85
2022/12/12 15:10:01;;;;;;;8.82;5.35;;;;;;;-1.73;91.49;99765.91;5349229;33;34787;-85
2022/12/12 15:13:19;;;;;;;10.77;5.03;;;;;;;-1.75;93.47;99765.22;5351144;33;34367;-86
2022/12/12 15:16:40;;;;;;;7.80;4.75;;;;;;;-1.69;92.58;99775.31;5361960;33;34297;-90
2022/12/12 15:19:58;;;;;;;9.38;5.18;;;;;;;-1.76;92.97;99781.97;5351402;33;34705;-86
2022/12/12 15:23:06;;;;;;;10.82;5.82;;;;;;;-1.72;93.12;99778.19;5361610;33;34900;-86
2022/12/12 15:26:18;;;;;;;9.20;5.40;;;;;;;-1.76;93.68;99772.25;5358283;33;33932;-85
2022/12/12 15:29:25;;;;;;;10.65;5.97;;;;;;;-1.65;93.98;99782.03;5357672;33;34296;-85
2022/12/12 15:32:28;;;;;;;10.40;5.93;;;;;;;-1.74;94.77;99793.28;5356078;33;34464;-85
2022/12/12 15:35:32;;;;;;;9.48;5.55;;;;;;;-1.68;94.70;99793.66;5352122;33;34935;-86
2022/12/12 15:38:35;;;;;;;10.00;6.00;;;;;;;-1.71;93.70;99790.41;5358785;33;34382;-84
2022/12/12 15:41:39;;;;;;;9.88;5.45;;;;;;;-1.75;94.23;99792.44;5366338;33;34649;-85
2022/12/12 15:44:44;;;;;;;9.38;5.10;;;;;;;-1.79;94.22;99796.25;5361958;33;32872;-85
2022/12/12 15:47:50;;;;;;;13.00;6.00;;;;;;;-1.77;93.55;99799.62;5340876;33;32956;-84
2022/12/12 15:51:05;;;;;;;11.10;6.05;;;;;;;-1.81;94.90;99798.19;5345115;33;33986;-85
2022/12/12 15:54:11;;;;;;;13.05;6.05;;;;;;;-1.87;95.58;99804.75;5344297;33;33969;-85
2022/12/12 15:57:16;;;;;;;8.80;5.00;;;;;;;-1.73;95.37;99806.34;5349641;33;33679;-85
2022/12/12 16:00:51;;;;;;;8.68;5.22;;;;;;;-1.77;94.60;99804.91;5345570;33;34018;-85
2022/12/12 16:04:17;;;;;;;10.90;5.53;;;;;;;-1.81;94.83;99803.44;5339715;33;35049;-85
2022/12/12 16:07:21;;;;;;;8.73;5.15;;;;;;;-1.72;93.82;99802.78;5353768;33;35407;-85
2022/12/12 16:10:26;;;;;;;10.63;5.57;;;;;;;-1.68;93.90;99798.94;5375297;33;33792;-84
2022/12/12 16:13:38;;;;;;;9.90;5.62;;;;;;;-1.67;93.58;99799.78;5367900;33;34488;-85
2022/12/12 16:16:44;;;;;;;12.50;5.75;;;;;;;-1.70;94.69;99798.19;5364145;33;34847;-86
2022/12/12 16:19:56;;;;;;;9.40;5.05;;;;;;;-1.70;93.73;99802.63;5351241;33;32564;-85
2022/12/12 16:23:17;;;;;;;8.80;5.32;;;;;;;-1.68;94.45;99806.00;5363855;33;33980;-85
2022/12/12 16:26:20;;;;;;;10.70;6.40;;;;;;;-1.70;95.66;99800.00;5365500;33;34118;-84
2022/12/12 16:29:23;;;;;;;9.90;5.53;;;;;;;-1.71;95.81;99804.44;5366776;33;34216;-85
2022/12/12 16:32:26;;;;;;;10.00;5.43;;;;;;;-1.63;94.90;99812.63;5370680;33;34162;-85
2022/12/12 16:35:29;;;;;;;9.85;5.30;;;;;;;-1.50;93.37;99817.81;5375630;33;33918;-85
2022/12/12 16:38:32;;;;;;;10.73;5.93;;;;;;;-1.49;92.35;99819.53;5377030;33;34233;-85
2022/12/12 16:41:35;;;;;;;5.32;4.22;;;;;;;-1.45;89.21;99822.78;5375877;33;35197;-85
2022/12/12 16:44:38;;;;;;;8.15;4.62;;;;;;;-1.45;88.70;99825.41;5362862;33;34356;-85
2022/12/12 16:47:41;;;;;;;9.13;5.00;;;;;;;-1.56;88.87;99823.56;5363204;33;33787;-86
2022/12/12 16:50:48;;;;;;;5.70;4.12;;;;;;;-1.52;88.47;99821.53;5364527;33;34266;-86
2022/12/12 16:53:51;;;;;;;6.53;4.25;;;;;;;-1.53;87.98;99822.50;5363742;33;34670;-86
2022/12/12 16:56:54;;;;;;;9.93;5.12;;;;;;;-1.60;90.76;99825.59;5349815;33;32770;-86
2022/12/12 16:59:57;;;;;;;8.98;4.32;;;;;;;-1.64;90.49;99824.16;5364171;33;34145;-86
